| Record Date MM/DD/YYYY | Record Julian Date NNN day of the year | Air Temperature Max (Degrees Fahrenheit F) | Time Max Air Temperature HH:MM:SS This is the time of max air temperature standard time. | Air Temperature Min (Degrees Fahrenheit F) | Time Min Air Temperature HH:MM:SS This is the time of min air temperature standard time. | Air Temperature Observed (Degrees Fahrenheit F) This is an instantaneous reading for air temperature at 7:00:00 standard time. | Relative Humidity Max (Percent) | Time Max Relative Humidity HH:MM:SS This is the time of max relative humidity standard time. | Relative Humidity Min (Percent) | Time Min Relative Humidity HH:MM:SS This is the time of min relative humidity standard time. | Relative Humidity Observed (Percent) This is an instantaneous reading at 7:00:00 standard time. | Precipitation (Inches n.nn) total rain fall that occurred for the day. | Pan Evaporation (Inches n.nn) total evaporation that occured for the day. | Wind Run (Miles) Wind travel for the day. | Wind Speed (Miles Per Hour) Resultant / Average speed for the day. | Wind Direction (Degrees) Resultant Direction for the day | Solar Radiation (Langley's) that occurred for the day. | Soil Temperature Max at 2 inch depth (Degrees Fahrenheit F) that occurred during the day. | Time Max Soil temperature at 2 inches HH:MM:SS This is the time of max 2 inch soil temperature standard time. | Soil Temperature Min at 2 inch depth (Degrees Fahrenheit F) that occurred during the day. | Time Min Soil temperature at 2 inches HH:MM:SS This is the time of min 2 inch soil temperature standard time. | Soil Temperature Observed at 2 inch depth (Degrees Fahrenheit F) This is an instantaneous reading 2 inch soil temperature at 7:00:00 standard time. | Soil Temperature Max at 4 inch depth (Degrees Fahrenheit F) that occurred during the day. | Time Max Soil temperature at 4 inches HH:MM:SS This is the time of max 4 inch soil temperature standard time. | Soil Temperature Min at 4 inch depth (Degrees Fahrenheit F) that occurred during the day. | Time Min Soil temperature at 4 inches HH:MM:SS This is the time of min 4 inch soil temperature standard time. | Soil Temperature Observed at 4 inch depth (Degrees Fahrenheit F) This is an instantaneous reading 4 inch soil temperature at 7:00:00 standard time. | DD50 Degree Days 50 Fahrenheit. | Adjusted DD50 Degree Days 50 Fahrenheit adjusted for latitude. | DD60 Degree Days 60 Fahrenheit. |
|---|---|---|---|---|---|---|---|---|---|---|---|---|---|---|---|---|---|---|---|---|---|---|---|---|---|---|---|---|---|---|
| 08/04/2026 | 216 | 92 | 14:51:03 | 67 | 5:26:02 | 75 | 99 | 5:47:03 | 47 | 16:37:01 | 90 | 0 | 37 | 1.5 | 36 | 633 | 98 | 15:40:02 | 81 | 6:32:05 | 81 | 94 | 17:12:03 | 83 | 7:33:01 | 83 | 29.5 | 27.09 | 19.5 | |
| 08/05/2026 | 217 | 96 | 14:51:00 | 64 | 4:57:03 | 74 | 99 | 2:57:01 | 46 | 11:13:05 | 90 | 0 | 32 | 1.3 | 48 | 630 | 100 | 15:54:01 | 81 | 6:28:04 | 81 | 95 | 17:05:05 | 83 | 7:30:01 | 83 | 30 | 27.05 | 20 | |
| 08/06/2026 | 218 | 98 | 14:39:00 | 66 | 4:23:04 | 74 | 98 | 4:53:04 | 41 | 14:39:04 | 91 | 0 | 32 | 1.3 | 129 | 662 | 101 | 15:37:00 | 82 | 6:27:05 | 82 | 96 | 17:18:05 | 84 | 7:41:02 | 84 | 32 | 27.02 | 22 | |
| 08/07/2026 | 219 | 96 | 13:30:04 | 71 | 4:37:03 | 79 | 99 | 5:51:00 | 57 | 13:30:04 | 92 | 0 | 55 | 2.3 | 179 | 542 | 98 | 14:01:00 | 84 | 6:25:04 | 84 | 94 | 17:38:05 | 86 | 7:43:05 | 86 | 33.5 | 26.99 | 23.5 | |
| 08/08/2026 | 220 | 96 | 17:02:04 | 71 | 5:08:02 | 77 | 98 | 5:29:02 | 53 | 17:04:04 | 93 | 0 | 57 | 2.4 | 181 | 542 | 98 | 14:01:04 | 84 | 6:20:00 | 84 | 94 | 17:53:00 | 86 | 7:25:01 | 86 | 33.5 | 26.96 | 23.5 | |
| 08/09/2026 | 221 | 97 | 14:32:02 | 71 | 5:10:04 | 77 | 98 | 5:56:01 | 53 | 13:43:00 | 93 | 0.02 | 55 | 2.3 | 164 | 616 | 101 | 15:35:03 | 84 | 6:33:02 | 84 | 96 | 16:33:01 | 86 | 7:40:05 | 86 | 34 | 26.92 | 24 | |
| 08/10/2026 | 222 | 98 | 13:47:05 | 73 | 5:31:01 | 80 | 98 | 23:06:05 | 54 | 13:54:03 | 91 | 0.31 | 48 | 2.0 | 137 | 450 | 99 | 14:19:00 | 83 | 23:57:03 | 85 | 95 | 15:13:04 | 86 | 0:00:00 | 87 | 35.5 | 26.89 | 25.5 | |
| 08/11/2026 | 223 | 94 | 14:56:00 | 74 | 4:41:01 | 79 | 99 | 4:57:01 | 59 | 13:54:02 | 94 | 0 | 69 | 2.9 | 198 | 562 | 96 | 15:56:03 | 81 | 6:06:04 | 81 | 92 | 17:29:04 | 83 | 7:01:00 | 83 | 34 | 26.85 | 24 | |
| 08/12/2026 | 224 | 97 | 14:22:01 | 74 | 5:20:00 | 80 | 97 | 5:39:02 | 47 | 13:48:05 | 91 | 0 | 75 | 3.1 | 193 | 612 | 100 | 15:39:04 | 82 | 6:19:03 | 82 | 95 | 16:52:03 | 84 | 7:17:01 | 84 | 35.5 | 26.82 | 25.5 | |
| 08/13/2026 | 225 | 98 | 15:35:00 | 75 | 5:11:05 | 80 | 97 | 5:40:03 | 52 | 15:18:05 | 91 | 0 | 72 | 3.0 | 193 | 594 | 100 | 16:02:04 | 84 | 6:36:04 | 84 | 96 | 17:08:05 | 86 | 7:38:04 | 86 | 36.5 | 26.79 | 26.5 | |
| 08/14/2026 | 226 | 98 | 16:44:00 | 75 | 23:58:01 | 81 | 96 | 4:28:04 | 44 | 15:27:01 | 87 | 0 | 57 | 2.4 | 199 | 637 | 101 | 15:23:00 | 85 | 6:38:04 | 85 | 97 | 17:06:05 | 87 | 7:26:04 | 87 | 36.5 | 26.75 | 26.5 | |
| 08/15/2026 | 227 | 100 | 15:31:00 | 70 | 5:33:05 | 78 | 97 | 2:14:01 | 47 | 15:40:04 | 87 | 0 | 54 | 2.2 | 202 | 629 | 102 | 16:00:05 | 84 | 6:38:00 | 84 | 97 | 17:05:05 | 87 | 7:46:01 | 87 | 35 | 26.72 | 25 | |
| 08/16/2026 | 228 | 103 | 13:49:03 | 74 | 5:35:01 | 82 | 96 | 5:27:00 | 40 | 14:26:01 | 87 | 0 | 54 | 2.3 | 206 | 585 | 102 | 15:58:04 | 86 | 6:37:03 | 87 | 98 | 17:32:05 | 88 | 7:34:03 | 88 | 38.5 | 26.68 | 28.5 | |
| 08/17/2026 | 229 | 101 | 13:43:00 | 77 | 23:37:00 | 84 | 95 | 23:40:03 | 41 | 15:35:05 | 80 | 0 | 79 | 3.3 | 249 | 569 | 101 | 15:52:02 | 88 | 6:36:04 | 88 | 98 | 17:21:01 | 89 | 7:35:00 | 89 | 39 | 26.65 | 29 | |
| 08/18/2026 | 230 | 98 | 13:55:00 | 75 | 3:59:02 | 77 | 97 | 3:24:03 | 50 | 17:14:02 | 96 | 0 | 39 | 1.6 | 41 | 436 | 98 | 14:24:03 | 87 | 6:50:02 | 87 | 96 | 17:48:00 | 89 | 8:01:05 | 89 | 36.5 | 26.61 | 26.5 | |
| 08/19/2026 | 231 | 103 | 14:27:01 | 74 | 2:53:02 | 83 | 97 | 5:40:00 | 41 | 15:09:02 | 84 | 0 | 74 | 3.1 | 187 | 615 | 102 | 15:17:05 | 86 | 6:36:03 | 86 | 98 | 16:50:05 | 88 | 7:31:02 | 88 | 38.5 | 26.58 | 28.5 | |
| 08/20/2026 | 232 | 104 | 15:15:05 | 74 | 5:10:04 | 83 | 95 | 5:43:03 | 43 | 15:12:04 | 83 | 0 | 82 | 3.4 | 199 | 545 | 102 | 15:50:05 | 87 | 6:38:02 | 87 | 98 | 16:44:04 | 89 | 7:47:01 | 89 | 39 | 26.54 | 29 | |
| 08/21/2026 | 233 | 98 | 14:44:00 | 71 | 23:48:01 | 77 | 94 | 6:04:05 | 47 | 15:59:05 | 88 | 0 | 65 | 2.7 | 6 | 564 | 101 | 15:25:02 | 87 | 7:12:04 | 87 | 97 | 17:00:03 | 89 | 8:30:01 | 89 | 34.5 | 26.51 | 24.5 | |
| 08/22/2026 | 234 | 102 | 15:20:02 | 67 | 5:05:03 | 76 | 98 | 5:25:05 | 40 | 15:41:03 | 90 | 0.11 | 66 | 2.8 | 0 | 574 | 101 | 15:29:01 | 85 | 6:37:04 | 85 | 97 | 16:55:01 | 87 | 7:40:04 | 87 | 34.5 | 26.47 | 24.5 | |
| 08/23/2026 | 235 | 96 | 15:08:02 | 71 | 5:55:02 | 74 | 100 | 6:18:03 | 49 | 15:26:00 | 98 | 0.06 | 58 | 2.4 | 39 | 598 | 99 | 15:40:00 | 83 | 6:40:02 | 83 | 95 | 16:45:05 | 86 | 7:49:00 | 86 | 33.5 | 26.44 | 23.5 | |
| 08/24/2026 | 236 | 89 | 14:14:03 | 73 | 4:34:03 | 75 | 97 | 23:58:02 | 66 | 14:24:04 | 87 | 0 | 56 | 2.3 | 309 | 335 | 93 | 14:50:03 | 83 | 9:01:00 | 84 | 91 | 17:05:04 | 85 | 10:22:05 | 86 | 31 | 26.4 | 21 | |
| 08/25/2026 | 237 | 94 | 15:21:04 | 73 | 0:30:00 | 75 | 99 | 5:48:03 | 56 | 16:28:05 | 98 | 0 | 41 | 1.7 | 180 | 388 | 94 | 16:29:02 | 83 | 6:39:01 | 83 | 92 | 17:45:00 | 85 | 8:12:02 | 85 | 33.5 | 26.37 | 23.5 | |
| 08/26/2026 | 238 | 102 | 15:44:02 | 72 | 19:44:04 | 80 | 98 | 6:07:00 | 36 | 14:36:00 | 91 | 1.42 | 85 | 3.5 | 222 | 538 | 99 | 16:27:04 | 83 | 23:58:02 | 84 | 95 | 17:42:03 | 85 | 7:49:03 | 85 | 37 | 26.33 | 27 | |
| 08/27/2026 | 239 | 94 | 15:10:01 | 72 | 4:08:03 | 73 | 99 | 2:24:01 | 52 | 15:28:03 | 96 | 0.01 | 45 | 1.9 | 357 | 519 | 93 | 14:00:01 | 80 | 6:29:04 | 80 | 91 | 17:14:00 | 83 | 7:47:05 | 83 | 33 | 26.3 | 23 | |
| 08/28/2026 | 240 | 96 | 14:06:05 | 70 | 23:20:04 | 76 | 99 | 2:12:04 | 42 | 17:03:01 | 91 | 0 | 76 | 3.2 | 39 | 583 | 97 | 15:34:00 | 80 | 7:30:04 | 81 | 93 | 16:56:01 | 82 | 8:42:02 | 83 | 33 | 26.26 | 23 | |
| 08/29/2026 | 241 | 95 | 14:58:03 | 64 | 5:42:03 | 72 | 98 | 4:55:03 | 33 | 15:54:04 | 88 | 0 | 42 | 1.8 | 47 | 624 | 97 | 15:19:03 | 78 | 6:33:03 | 78 | 93 | 17:04:01 | 81 | 7:52:00 | 81 | 29.5 | 26.22 | 19.5 | |
| 08/30/2026 | 242 | 97 | 15:09:05 | 69 | 5:05:02 | 77 | 97 | 5:45:04 | 46 | 14:58:04 | 87 | 0 | 66 | 2.7 | 114 | 554 | 97 | 15:49:02 | 80 | 6:28:01 | 81 | 93 | 17:28:03 | 83 | 7:34:00 | 83 | 33 | 26.19 | 23 | |
| 08/31/2026 | 243 | 99 | 15:08:05 | 72 | 5:36:05 | 79 | 98 | 5:45:04 | 46 | 14:01:04 | 87 | 0 | 47 | 2.0 | 91 | 546 | 98 | 15:37:00 | 82 | 6:31:00 | 83 | 94 | 17:44:04 | 84 | 7:30:02 | 85 | 35.5 | 26.15 | 25.5 | |
| 09/01/2026 | 244 | 101 | 14:02:04 | 73 | 5:44:01 | 80 | 98 | 6:03:01 | 45 | 14:42:02 | 86 | 0 | 51 | 2.1 | 93 | 578 | 100 | 14:20:02 | 84 | 6:46:05 | 84 | 96 | 17:26:00 | 86 | 7:48:03 | 86 | 37 | 26.12 | 27 | |
| 09/02/2026 | 245 | 101 | 13:17:02 | 73 | 5:35:01 | 81 | 98 | 4:23:00 | 44 | 14:31:02 | 87 | 0 | 47 | 2.0 | 93 | 531 | 101 | 15:31:04 | 85 | 6:36:03 | 85 | 97 | 16:14:01 | 87 | 7:45:05 | 87 | 37 | 26.08 | 27 | |
| Average | 97.77 | 71.5 | 77.93 | 97.6 | 47.23 | 89.8 | 0.06 | 57.2 | 559.7 | 98.97 | 83.4 | 83.67 | 95.1 | 85.57 | 85.7 | 34.63 | 26.59 | 24.63 | ||||||||||||
| Total | 1.93 | 1039 | 797.75 | 739 |